Time;durP1;ratioP1;P1;durP2;ratioP2;P2;SDS_P1;SDS_P2;PMS_P1;PMS_P2;Temp;Humidity;BMP_temperature;BMP_pressure;BME280_temperature;BME280_humidity;BME280_pressure;Samples;Min_cycle;Max_cycle;Signal;HPM_P1;HPM_P2
2022/05/03 00:00:48;;;;;;;8.00;3.75;;;;;;;8.78;68.33;101816.13;5089975;28;20095;-70
2022/05/03 00:03:24;;;;;;;6.93;3.95;;;;;;;8.69;68.16;101816.25;5089979;28;20028;-70
2022/05/03 00:06:07;;;;;;;7.60;3.88;;;;;;;8.69;67.88;101813.59;5089814;28;20490;-70
2022/05/03 00:08:52;;;;;;;6.35;3.58;;;;;;;8.69;68.29;101814.41;5089952;28;20123;-70
2022/05/03 00:11:32;;;;;;;7.40;3.50;;;;;;;8.65;68.80;101817.56;5089181;28;20056;-69
2022/05/03 00:14:36;;;;;;;6.93;3.60;;;;;;;8.60;68.13;101812.72;5083672;28;20028;-70
2022/05/03 00:17:01;;;;;;;7.20;4.20;;;;;;;8.57;69.02;101810.41;5089373;28;20028;-70
2022/05/03 00:19:28;;;;;;;7.63;4.07;;;;;;;8.56;68.89;101814.03;5089569;28;20089;-70
2022/05/03 00:21:55;;;;;;;8.68;4.78;;;;;;;8.50;68.66;101806.69;5089726;28;20034;-70
2022/05/03 00:24:20;;;;;;;7.70;3.78;;;;;;;8.49;68.89;101805.06;5088369;28;20032;-69
2022/05/03 00:26:47;;;;;;;5.95;3.80;;;;;;;8.45;69.07;101809.00;5070209;28;20032;-69
2022/05/03 00:29:12;;;;;;;9.63;4.13;;;;;;;8.41;69.11;101807.63;5070147;28;20498;-70
2022/05/03 00:31:38;;;;;;;9.57;4.38;;;;;;;8.38;68.96;101813.25;5070156;28;20115;-69
2022/05/03 00:34:05;;;;;;;6.38;3.70;;;;;;;8.34;69.00;101797.63;5070082;28;20503;-69
2022/05/03 00:36:31;;;;;;;6.30;3.88;;;;;;;8.32;69.11;101802.25;5089263;28;20373;-69
2022/05/03 00:38:57;;;;;;;8.18;3.88;;;;;;;8.27;69.10;101801.06;5090063;28;20161;-69
2022/05/03 00:41:28;;;;;;;6.20;3.33;;;;;;;8.26;69.12;101797.59;5089417;28;20032;-70
2022/05/03 00:47:18;;;;;;;6.13;3.75;;;;;;;8.21;69.34;101802.53;5069877;28;20355;-69
2022/05/03 00:50:04;;;;;;;9.10;3.97;;;;;;;8.17;69.09;101803.81;5088719;28;20475;-69
2022/05/03 00:52:30;;;;;;;7.25;3.88;;;;;;;8.12;69.65;101798.16;5089086;28;20415;-70
2022/05/03 00:55:13;;;;;;;8.68;4.22;;;;;;;8.08;69.39;101799.47;5089001;28;20059;-69
2022/05/03 00:57:50;;;;;;;8.30;4.35;;;;;;;8.05;69.43;101807.75;5087693;28;20066;-69
2022/05/03 01:00:16;;;;;;;9.95;4.18;;;;;;;7.99;69.89;101803.91;5089005;28;20031;-69
2022/05/03 01:03:18;;;;;;;5.60;3.58;;;;;;;7.99;69.02;101803.91;5088962;28;20016;-70
2022/05/03 01:05:55;;;;;;;6.43;3.70;;;;;;;7.96;69.52;101803.38;5088889;28;20036;-69
2022/05/03 01:08:46;;;;;;;5.82;3.80;;;;;;;7.93;69.50;101809.00;5088877;28;20131;-69
2022/05/03 01:11:29;;;;;;;10.30;5.93;;;;;;;7.89;69.36;101804.00;5088907;28;20036;-69
2022/05/03 01:14:12;;;;;;;6.95;3.45;;;;;;;7.85;69.91;101812.44;5089009;28;20028;-69
2022/05/03 01:16:45;;;;;;;8.35;4.68;;;;;;;7.85;69.75;101809.78;5088968;28;20020;-70
2022/05/03 01:19:33;;;;;;;6.25;3.55;;;;;;;7.83;69.38;101803.78;5088903;28;20115;-70
2022/05/03 01:22:26;;;;;;;7.60;4.03;;;;;;;7.80;69.87;101807.56;5076381;28;20055;-70
2022/05/03 01:25:28;;;;;;;5.80;3.78;;;;;;;7.76;69.42;101797.44;5088800;28;20051;-69
2022/05/03 01:28:03;;;;;;;10.20;4.65;;;;;;;7.75;69.90;101801.06;5088858;28;20100;-69
2022/05/03 01:30:31;;;;;;;6.22;3.40;;;;;;;7.71;70.75;101799.72;5088547;28;20020;-69
2022/05/03 01:33:05;;;;;;;9.80;3.70;;;;;;;7.68;70.34;101811.47;5088815;28;20032;-70
2022/05/03 01:35:37;;;;;;;8.60;3.83;;;;;;;7.66;70.09;101816.09;5090660;28;20077;-69
2022/05/03 01:38:12;;;;;;;5.93;3.53;;;;;;;7.58;70.46;101806.25;5091946;28;20078;-70
2022/05/03 01:40:44;;;;;;;4.75;3.45;;;;;;;7.52;70.38;101798.91;5077228;28;20103;-70
2022/05/03 01:43:22;;;;;;;5.95;3.75;;;;;;;7.48;70.57;101810.81;5073425;28;20029;-70
2022/05/03 01:46:05;;;;;;;9.65;4.00;;;;;;;7.43;70.70;101803.28;5092475;28;20129;-70
2022/05/03 01:51:58;;;;;;;8.75;4.20;;;;;;;7.38;70.65;101804.75;5092712;28;20043;-70
2022/05/03 01:54:26;;;;;;;6.07;3.33;;;;;;;7.34;71.26;101804.22;5092565;28;20094;-70
2022/05/03 01:57:08;;;;;;;8.45;3.83;;;;;;;7.34;71.22;101800.75;5088211;28;20074;-70
2022/05/03 02:00:03;;;;;;;6.82;3.80;;;;;;;7.33;70.98;101805.19;5072927;28;20028;-70
2022/05/03 02:02:34;;;;;;;8.50;3.53;;;;;;;7.29;71.40;101803.84;5092306;28;20047;-69
2022/05/03 02:05:05;;;;;;;7.10;3.88;;;;;;;7.25;71.45;101797.16;5092102;28;20028;-69
2022/05/03 02:07:52;;;;;;;4.90;2.80;;;;;;;7.22;71.17;101792.16;5092270;28;20016;-69
2022/05/03 02:10:44;;;;;;;5.70;3.65;;;;;;;7.19;71.26;101800.44;5092320;28;20383;-69
2022/05/03 02:17:17;;;;;;;7.85;3.40;;;;;;;7.14;71.38;101797.38;5092361;28;20145;-69
2022/05/03 02:20:04;;;;;;;8.25;3.53;;;;;;;7.10;72.05;101793.34;5064431;28;20048;-69
2022/05/03 02:22:54;;;;;;;8.52;4.18;;;;;;;7.08;71.58;101800.66;5091818;28;20035;-69
2022/05/03 02:25:38;;;;;;;6.72;3.80;;;;;;;7.02;72.23;101788.81;5091651;28;20042;-69
2022/05/03 02:28:27;;;;;;;7.82;4.10;;;;;;;7.01;71.96;101798.59;5091798;28;20024;-69
2022/05/03 02:30:54;;;;;;;7.15;4.43;;;;;;;6.99;72.60;101795.25;5091752;28;20069;-69
2022/05/03 02:33:51;;;;;;;5.00;3.05;;;;;;;6.93;72.50;101793.19;5091756;28;20571;-69
2022/05/03 02:36:24;;;;;;;4.82;3.15;;;;;;;6.94;72.76;101794.03;5043248;28;20040;-69
2022/05/03 02:39:03;;;;;;;7.07;4.38;;;;;;;6.90;72.53;101784.72;5091253;28;20056;-70
2022/05/03 02:41:32;;;;;;;8.43;3.60;;;;;;;6.90;72.83;101792.66;5091515;28;20040;-69
2022/05/03 02:44:01;;;;;;;9.70;4.22;;;;;;;6.78;72.99;101782.25;5091436;28;20472;-69
2022/05/03 02:46:33;;;;;;;6.00;3.42;;;;;;;6.83;72.92;101794.25;5090419;28;20029;-69
2022/05/03 02:49:03;;;;;;;6.18;3.45;;;;;;;6.82;73.56;101795.25;5091388;28;20482;-69
2022/05/03 02:51:39;;;;;;;7.18;3.40;;;;;;;6.79;73.33;101791.91;5091187;28;20035;-69
2022/05/03 02:54:48;;;;;;;7.78;4.05;;;;;;;6.78;72.78;101794.69;5091405;28;20019;-69
2022/05/03 02:57:39;;;;;;;8.60;3.83;;;;;;;6.75;73.34;101787.03;5090853;28;20555;-69
2022/05/03 03:03:31;;;;;;;4.85;3.60;;;;;;;6.68;72.82;101788.59;5091444;28;20160;-69
2022/05/03 03:05:59;;;;;;;6.68;3.97;;;;;;;6.66;73.96;101803.84;5081166;28;20043;-69
2022/05/03 03:08:28;;;;;;;6.35;3.85;;;;;;;6.62;74.04;101795.31;5074804;28;20031;-69
2022/05/03 03:11:07;;;;;;;6.18;4.25;;;;;;;6.62;73.73;101797.97;5091101;28;20039;-70
2022/05/03 03:13:53;;;;;;;7.47;3.83;;;;;;;6.57;73.81;101785.16;5090036;28;20479;-69
2022/05/03 03:16:33;;;;;;;5.80;3.95;;;;;;;6.55;74.08;101787.16;5090874;28;20024;-69
2022/05/03 03:19:06;;;;;;;8.55;3.95;;;;;;;6.49;74.20;101784.22;5090897;28;20020;-69
2022/05/03 03:21:35;;;;;;;8.60;4.88;;;;;;;6.51;74.20;101792.88;5090880;28;20051;-69
2022/05/03 03:24:01;;;;;;;6.40;4.15;;;;;;;6.48;74.21;101791.34;5089376;28;20093;-69
2022/05/03 03:26:30;;;;;;;7.80;4.30;;;;;;;6.50;74.55;101784.09;5089143;28;20463;-69
2022/05/03 03:28:58;;;;;;;7.15;4.22;;;;;;;6.50;74.94;101791.22;5090503;28;20032;-69
2022/05/03 03:31:26;;;;;;;7.38;4.05;;;;;;;6.41;74.66;101787.63;5090655;28;20024;-69
2022/05/03 03:33:54;;;;;;;5.70;3.85;;;;;;;6.45;74.84;101801.44;5090414;28;20058;-69
2022/05/03 03:36:22;;;;;;;8.20;4.63;;;;;;;6.41;75.48;101798.22;5090511;28;20020;-69
2022/05/03 03:38:48;;;;;;;7.03;4.20;;;;;;;6.38;75.19;101801.16;5090337;28;20038;-69
2022/05/03 03:41:13;;;;;;;10.73;4.18;;;;;;;6.36;75.90;101800.47;5090259;28;20127;-69
2022/05/03 03:43:40;;;;;;;9.85;3.85;;;;;;;6.32;75.62;101797.28;5090309;28;20032;-69
2022/05/03 03:46:06;;;;;;;11.40;5.03;;;;;;;6.32;75.63;101796.44;5090277;28;20028;-69
2022/05/03 03:48:32;;;;;;;7.93;4.25;;;;;;;6.31;75.51;101794.75;5090182;28;20104;-69
2022/05/03 03:50:59;;;;;;;9.68;4.22;;;;;;;6.31;75.91;101797.41;5090157;28;20032;-69
2022/05/03 03:53:26;;;;;;;8.20;3.90;;;;;;;6.28;75.94;101781.81;5089992;28;20035;-69
2022/05/03 03:55:51;;;;;;;11.98;5.13;;;;;;;6.31;75.86;101786.81;5089806;28;20080;-69
2022/05/03 03:58:17;;;;;;;9.52;3.95;;;;;;;6.26;75.96;101783.78;5089923;28;20076;-69
2022/05/03 04:00:44;;;;;;;7.40;4.03;;;;;;;6.26;76.21;101792.56;5090010;28;20040;-69
2022/05/03 04:03:09;;;;;;;9.18;4.38;;;;;;;6.25;75.87;101782.09;5089886;28;20526;-69
2022/05/03 04:05:35;;;;;;;8.63;4.55;;;;;;;6.20;76.14;101779.88;5090009;28;20119;-69
2022/05/03 04:08:01;;;;;;;8.45;4.82;;;;;;;6.24;76.40;101793.69;5089725;28;20030;-69
2022/05/03 04:10:26;;;;;;;6.32;3.67;;;;;;;6.23;76.32;101784.06;5089587;28;20028;-69
2022/05/03 04:12:52;;;;;;;8.82;4.22;;;;;;;6.22;75.99;101788.53;5089529;28;20042;-69
2022/05/03 04:15:17;;;;;;;6.30;3.67;;;;;;;6.23;76.33;101797.31;5089585;28;20404;-70
2022/05/03 04:17:44;;;;;;;8.25;4.55;;;;;;;6.19;76.48;101796.78;5089590;28;20502;-69
2022/05/03 04:20:11;;;;;;;8.27;4.15;;;;;;;6.12;76.71;101782.44;5089604;28;20093;-69
2022/05/03 04:22:36;;;;;;;8.05;4.15;;;;;;;6.15;76.83;101798.03;5089519;28;20035;-69
2022/05/03 04:25:04;;;;;;;6.63;4.03;;;;;;;6.19;76.91;101801.25;5088156;28;20040;-69
2022/05/03 04:27:29;;;;;;;11.10;5.47;;;;;;;6.23;76.67;101802.59;5089337;28;20038;-69
2022/05/03 04:29:56;;;;;;;10.65;4.20;;;;;;;6.21;77.10;101802.78;5089468;28;20020;-69
2022/05/03 04:32:22;;;;;;;9.32;4.53;;;;;;;6.20;77.34;101802.91;5086091;28;20543;-69
2022/05/03 04:34:48;;;;;;;9.00;4.80;;;;;;;6.19;76.98;101801.25;5076946;28;20024;-69
2022/05/03 04:37:14;;;;;;;8.48;4.25;;;;;;;6.21;77.05;101794.81;5089344;28;20054;-69
2022/05/03 04:39:39;;;;;;;8.93;4.32;;;;;;;6.25;77.09;101798.84;5089306;28;20059;-70
2022/05/03 04:42:05;;;;;;;10.05;4.85;;;;;;;6.28;77.41;101801.19;5089076;28;20083;-69
2022/05/03 04:44:31;;;;;;;11.43;4.35;;;;;;;6.30;77.04;101796.59;5070414;28;20048;-69
2022/05/03 04:46:57;;;;;;;10.35;5.30;;;;;;;6.41;77.04;101802.69;5069793;28;20120;-69
2022/05/03 04:49:22;;;;;;;10.60;4.35;;;;;;;6.72;76.50;101798.75;5069726;28;20028;-69
2022/05/03 04:51:48;;;;;;;9.38;5.00;;;;;;;7.29;75.18;101800.38;5069700;28;20078;-69
2022/05/03 04:54:13;;;;;;;9.48;4.68;;;;;;;7.69;73.21;101797.22;5069721;28;20123;-69
2022/05/03 04:56:46;;;;;;;10.32;4.75;;;;;;;8.19;71.44;101804.50;5069558;28;20411;-69
2022/05/03 04:59:11;;;;;;;9.07;4.95;;;;;;;8.39;70.10;101809.63;5088971;28;20047;-69
2022/05/03 05:01:36;;;;;;;8.82;4.95;;;;;;;8.29;70.71;101815.03;5088822;28;20522;-69
2022/05/03 05:04:02;;;;;;;7.28;4.85;;;;;;;8.53;70.29;101815.19;5089040;28;20031;-69
2022/05/03 05:06:27;;;;;;;11.38;5.18;;;;;;;9.13;68.52;101810.72;5088873;28;20024;-69
2022/05/03 05:08:52;;;;;;;12.07;4.97;;;;;;;9.28;67.01;101816.25;5088764;28;20059;-70
2022/05/03 05:11:18;;;;;;;10.35;5.47;;;;;;;9.20;67.61;101823.22;5088482;28;20041;-69
2022/05/03 05:13:43;;;;;;;9.45;4.70;;;;;;;9.40;66.64;101815.75;5088963;28;20453;-70
2022/05/03 05:16:08;;;;;;;9.20;4.95;;;;;;;9.63;66.08;101815.09;5087803;28;20467;-70
2022/05/03 05:18:34;;;;;;;9.32;4.97;;;;;;;10.09;64.77;101820.72;5088912;28;20119;-70
2022/05/03 05:21:00;;;;;;;11.43;5.50;;;;;;;10.46;63.16;101822.00;5088809;28;20032;-69
2022/05/03 05:23:25;;;;;;;9.38;4.60;;;;;;;10.24;63.34;101826.19;5088664;28;20175;-70
2022/05/03 05:25:51;;;;;;;9.55;5.40;;;;;;;9.99;64.63;101823.56;5088428;28;20024;-69
2022/05/03 05:28:19;;;;;;;17.67;5.60;;;;;;;9.77;65.00;101829.56;5088672;28;20039;-69
2022/05/03 05:30:45;;;;;;;12.05;5.45;;;;;;;9.63;65.80;101833.75;5088580;28;20028;-69
2022/05/03 05:33:10;;;;;;;11.40;6.22;;;;;;;9.59;66.14;101829.75;5088602;28;20024;-70
2022/05/03 05:35:36;;;;;;;10.65;5.40;;;;;;;9.64;65.39;101833.59;5088686;28;20027;-69
2022/05/03 05:38:02;;;;;;;9.88;5.03;;;;;;;9.68;65.77;101835.91;5088748;28;20140;-69
2022/05/03 05:40:28;;;;;;;8.75;4.80;;;;;;;9.63;66.14;101839.91;5088926;28;20036;-69
2022/05/03 05:42:54;;;;;;;11.02;5.85;;;;;;;9.55;66.09;101839.91;5069423;28;20107;-69
2022/05/03 05:45:19;;;;;;;9.25;4.57;;;;;;;9.43;66.26;101838.53;5051253;28;20082;-69
2022/05/03 05:47:44;;;;;;;12.07;4.97;;;;;;;9.37;67.27;101833.88;5069313;28;20032;-69
2022/05/03 05:50:11;;;;;;;11.82;5.05;;;;;;;9.33;67.79;101845.88;5069263;28;20036;-69
2022/05/03 05:55:21;;;;;;;10.70;6.65;;;;;;;9.30;67.97;101841.72;5069204;28;20059;-69
2022/05/03 05:57:46;;;;;;;9.77;5.32;;;;;;;9.25;68.48;101845.84;5069728;28;20032;-69
2022/05/03 06:00:12;;;;;;;10.80;5.18;;;;;;;9.25;68.13;101841.38;5085759;28;20024;-69
2022/05/03 06:02:38;;;;;;;11.27;6.18;;;;;;;9.27;67.62;101836.69;5088206;28;20064;-69
2022/05/03 06:05:04;;;;;;;9.82;5.03;;;;;;;9.43;66.64;101844.72;5088142;28;20035;-69
2022/05/03 06:07:29;;;;;;;10.27;5.45;;;;;;;9.55;66.57;101839.91;5087091;28;20380;-70
2022/05/03 06:09:54;;;;;;;11.68;6.20;;;;;;;9.61;65.91;101843.72;5088267;28;20089;-69
2022/05/03 06:12:20;;;;;;;7.70;5.03;;;;;;;9.63;66.02;101842.56;5088248;28;20119;-70
2022/05/03 06:14:45;;;;;;;12.68;6.00;;;;;;;9.57;66.51;101843.22;5086973;28;20387;-70
2022/05/03 06:17:10;;;;;;;9.30;5.47;;;;;;;9.47;65.82;101844.41;5088377;28;20074;-70
2022/05/03 06:19:36;;;;;;;8.65;4.97;;;;;;;9.45;65.24;101852.53;5088246;28;20487;-69
2022/05/03 06:22:01;;;;;;;12.95;5.93;;;;;;;9.50;66.80;101844.88;5089024;28;20085;-69
2022/05/03 06:24:26;;;;;;;11.75;5.30;;;;;;;9.56;66.35;101846.91;5073675;28;20119;-69
2022/05/03 06:26:53;;;;;;;10.45;4.88;;;;;;;9.68;64.81;101846.56;5091685;28;20044;-69
2022/05/03 06:29:19;;;;;;;9.48;4.38;;;;;;;9.77;64.88;101846.41;5091741;28;20031;-69
2022/05/03 06:31:44;;;;;;;9.70;5.38;;;;;;;9.78;64.36;101849.91;5090447;28;20032;-69
2022/05/03 06:34:10;;;;;;;11.50;4.88;;;;;;;9.81;64.20;101849.56;5091739;28;20024;-70
2022/05/03 06:36:36;;;;;;;10.23;4.32;;;;;;;9.88;63.58;101848.72;5091411;28;20032;-70
2022/05/03 06:39:02;;;;;;;8.73;4.13;;;;;;;9.88;62.26;101845.25;5091414;28;20057;-69
2022/05/03 06:41:28;;;;;;;6.93;4.55;;;;;;;9.92;61.42;101851.88;5091448;28;20063;-70
2022/05/03 06:43:53;;;;;;;8.02;4.22;;;;;;;9.95;61.77;101842.72;5091548;28;20076;-70
2022/05/03 06:46:20;;;;;;;9.63;5.25;;;;;;;9.97;62.19;101843.41;5091450;28;20067;-69
2022/05/03 06:48:45;;;;;;;8.13;4.03;;;;;;;10.09;61.61;101858.06;5091525;28;20056;-69
2022/05/03 06:51:11;;;;;;;7.78;4.10;;;;;;;10.17;61.42;101857.22;5091451;28;20066;-70
2022/05/03 06:53:36;;;;;;;6.95;4.00;;;;;;;10.25;59.49;101849.19;5091168;28;20119;-70
2022/05/03 06:56:01;;;;;;;9.63;4.78;;;;;;;10.30;59.25;101854.88;5090634;28;20081;-69
2022/05/03 06:58:27;;;;;;;12.27;4.20;;;;;;;10.37;57.49;101855.84;5091473;28;20024;-70
2022/05/03 07:00:52;;;;;;;7.32;3.80;;;;;;;10.45;58.26;101855.84;5091047;28;20032;-69
2022/05/03 07:03:17;;;;;;;6.72;4.15;;;;;;;10.44;55.01;101848.84;5091001;28;20124;-69
2022/05/03 07:05:44;;;;;;;7.75;2.83;;;;;;;10.64;53.16;101862.63;5090960;28;20487;-69
2022/05/03 07:08:10;;;;;;;6.25;2.83;;;;;;;10.68;53.60;101863.09;5090849;28;20075;-70
2022/05/03 07:10:36;;;;;;;6.95;3.60;;;;;;;10.77;54.92;101863.88;5091067;28;20036;-69
2022/05/03 07:13:01;;;;;;;10.48;3.65;;;;;;;10.86;52.28;101862.88;5090934;28;20032;-69
2022/05/03 07:15:27;;;;;;;5.00;2.92;;;;;;;10.95;49.98;101873.34;5090821;28;20029;-69
2022/05/03 07:23:23;;;;;;;6.43;2.83;;;;;;;11.16;49.00;101861.19;5090879;28;20046;-69
2022/05/03 07:25:50;;;;;;;4.35;2.30;;;;;;;11.31;48.25;101863.94;5090437;28;20028;-69
2022/05/03 07:28:15;;;;;;;3.90;2.20;;;;;;;11.48;46.77;101865.53;5088928;28;20490;-69
2022/05/03 07:30:41;;;;;;;2.80;2.30;;;;;;;11.90;43.92;101864.22;5088955;28;20044;-70
2022/05/03 07:33:07;;;;;;;2.70;1.88;;;;;;;12.27;44.38;101863.38;5089953;28;20039;-70
2022/05/03 07:35:32;;;;;;;2.85;2.05;;;;;;;12.47;42.97;101865.47;5090415;28;20593;-70
2022/05/03 07:37:58;;;;;;;3.40;2.20;;;;;;;12.59;43.50;101864.03;5089973;28;20028;-70
2022/05/03 07:40:23;;;;;;;4.25;2.30;;;;;;;12.58;44.09;101867.72;5090158;28;20460;-70
2022/05/03 07:42:49;;;;;;;5.13;2.53;;;;;;;12.47;43.26;101868.16;5089010;28;20127;-70
2022/05/03 07:45:15;;;;;;;3.50;2.45;;;;;;;12.42;43.54;101870.59;5090238;28;20059;-70
2022/05/03 07:47:41;;;;;;;4.93;2.70;;;;;;;12.36;44.59;101871.31;5070734;28;20066;-70
2022/05/03 07:50:07;;;;;;;4.45;2.58;;;;;;;12.41;43.35;101869.72;5069988;28;20095;-71
2022/05/03 07:52:32;;;;;;;3.45;2.20;;;;;;;12.63;43.21;101872.53;5070183;28;20031;-71
2022/05/03 07:54:58;;;;;;;6.20;2.75;;;;;;;12.93;42.89;101870.63;5070322;28;20032;-74
2022/05/03 07:57:24;;;;;;;4.22;2.55;;;;;;;13.03;42.97;101873.84;5073415;28;20410;-73
2022/05/03 07:59:50;;;;;;;4.22;2.40;;;;;;;14.01;43.18;101864.34;5075223;28;20383;-73
2022/05/03 08:02:16;;;;;;;3.85;2.67;;;;;;;16.58;37.19;101860.91;5071642;28;20028;-72
2022/05/03 08:04:41;;;;;;;5.30;3.00;;;;;;;18.80;33.95;101854.53;5070445;28;20043;-72
2022/05/03 08:07:06;;;;;;;6.28;3.38;;;;;;;20.40;31.22;101860.19;5070259;28;20021;-72
2022/05/03 08:09:34;;;;;;;4.90;2.70;;;;;;;20.77;30.07;101852.59;5070216;28;20620;-72
2022/05/03 08:12:00;;;;;;;6.10;2.55;;;;;;;21.30;29.13;101862.31;5089246;28;20066;-72
2022/05/03 08:14:27;;;;;;;5.85;2.90;;;;;;;22.48;28.59;101864.22;5084235;28;20032;-73
2022/05/03 08:16:53;;;;;;;4.90;2.67;;;;;;;22.36;27.28;101866.22;5088201;28;20158;-72
2022/05/03 08:19:18;;;;;;;6.32;3.13;;;;;;;22.43;27.57;101861.44;5088284;28;20115;-72
2022/05/03 08:21:43;;;;;;;6.97;3.95;;;;;;;22.97;26.79;101859.66;5088268;28;20395;-72
2022/05/03 08:24:09;;;;;;;5.15;2.92;;;;;;;22.94;27.14;101860.16;5089098;28;20654;-72
2022/05/03 08:26:34;;;;;;;2.85;2.47;;;;;;;23.08;26.95;101863.34;5089373;28;20442;-71
2022/05/03 08:29:00;;;;;;;7.43;3.65;;;;;;;23.33;26.28;101868.19;5089567;28;20046;-70
2022/05/03 08:31:25;;;;;;;5.00;3.33;;;;;;;23.88;25.91;101871.69;5070005;28;20032;-74
2022/05/03 08:33:51;;;;;;;6.47;3.53;;;;;;;23.88;25.56;101863.53;5069555;28;20036;-74
2022/05/03 08:36:16;;;;;;;6.57;3.30;;;;;;;23.82;25.71;101870.84;5069924;28;20383;-74
2022/05/03 08:44:10;;;;;;;8.85;4.25;;;;;;;25.27;25.98;101868.56;5085579;28;20039;-74
2022/05/03 08:46:36;;;;;;;8.70;4.47;;;;;;;25.22;24.99;101865.00;5088923;28;20032;-73
2022/05/03 08:49:04;;;;;;;5.60;3.38;;;;;;;24.29;26.44;101863.81;5088636;28;20378;-74
2022/05/03 08:51:31;;;;;;;7.68;4.05;;;;;;;22.74;29.92;101865.34;5078514;28;20042;-74
2022/05/03 08:54:01;;;;;;;7.05;3.53;;;;;;;21.01;31.03;101867.75;5086104;28;20028;-74
2022/05/03 08:56:28;;;;;;;7.00;3.97;;;;;;;19.58;33.44;101879.91;5089051;28;20036;-74
2022/05/03 08:58:55;;;;;;;7.45;4.05;;;;;;;18.46;35.29;101872.16;5089008;28;20107;-74
2022/05/03 09:01:20;;;;;;;8.38;5.03;;;;;;;17.64;37.96;101869.53;5089098;28;20470;-73
2022/05/03 09:03:46;;;;;;;9.57;5.05;;;;;;;17.17;38.55;101877.09;5089079;28;20112;-73
2022/05/03 09:06:11;;;;;;;5.75;3.60;;;;;;;16.62;40.26;101874.78;5088616;28;20368;-74
2022/05/03 09:08:39;;;;;;;6.45;4.70;;;;;;;16.23;41.11;101875.69;5088492;28;20059;-74
2022/05/03 09:11:17;;;;;;;11.55;5.78;;;;;;;16.08;41.33;101860.56;5088760;28;20042;-74
2022/05/03 09:13:45;;;;;;;6.32;4.25;;;;;;;15.96;42.66;101873.03;5088813;28;20028;-74
2022/05/03 09:16:15;;;;;;;10.50;5.72;;;;;;;15.73;43.16;101874.25;5088699;28;20031;-73
2022/05/03 09:18:42;;;;;;;7.73;4.40;;;;;;;15.54;43.69;101870.47;5088995;28;20589;-74
2022/05/03 09:24:09;;;;;;;8.67;4.90;;;;;;;15.51;43.67;101872.72;5088546;28;20043;-73
2022/05/03 09:26:37;;;;;;;8.10;4.43;;;;;;;15.46;43.78;101865.28;5088289;28;20039;-74
2022/05/03 09:29:08;;;;;;;8.68;4.10;;;;;;;15.53;45.81;101868.78;5088848;28;20088;-73
2022/05/03 09:31:39;;;;;;;10.00;4.70;;;;;;;15.60;43.94;101878.75;5088577;28;20039;-74
2022/05/03 09:34:19;;;;;;;9.38;5.53;;;;;;;15.57;44.33;101886.19;5083873;28;20399;-73
2022/05/03 09:36:50;;;;;;;10.18;5.20;;;;;;;15.43;44.96;101878.28;5082034;28;20024;-74
2022/05/03 09:39:28;;;;;;;12.88;5.45;;;;;;;15.38;45.12;101876.25;5088664;28;20099;-74
2022/05/03 09:42:09;;;;;;;9.35;4.78;;;;;;;15.39;45.32;101874.38;5088770;28;20039;-73
2022/05/03 09:44:36;;;;;;;9.48;4.15;;;;;;;15.42;45.90;101865.91;5088540;28;20024;-74
2022/05/03 09:47:11;;;;;;;10.13;4.25;;;;;;;15.59;45.81;101869.00;5088564;28;20027;-74
2022/05/03 09:49:40;;;;;;;9.85;4.60;;;;;;;15.72;44.66;101871.78;5088507;28;20055;-73
2022/05/03 09:52:06;;;;;;;8.32;4.63;;;;;;;15.68;44.94;101857.84;5088680;28;20024;-74
2022/05/03 09:54:52;;;;;;;11.02;5.38;;;;;;;15.83;44.98;101863.06;5088485;28;20100;-74
2022/05/03 09:57:22;;;;;;;9.65;4.63;;;;;;;15.98;45.69;101860.16;5090736;28;20048;-73
2022/05/03 09:59:50;;;;;;;10.40;4.40;;;;;;;16.19;46.86;101861.78;5092407;28;20036;-74
2022/05/03 10:02:20;;;;;;;9.45;5.18;;;;;;;16.37;47.29;101863.84;5088630;28;20047;-74
2022/05/03 10:04:47;;;;;;;9.63;5.40;;;;;;;16.55;45.10;101852.41;5092110;28;20067;-74
2022/05/03 10:07:14;;;;;;;10.38;4.88;;;;;;;16.68;43.83;101859.63;5080946;28;20120;-74
2022/05/03 10:09:41;;;;;;;8.57;4.22;;;;;;;16.61;45.79;101854.25;5091630;28;20111;-74
2022/05/03 10:12:08;;;;;;;7.20;4.13;;;;;;;16.65;45.09;101856.31;5092324;28;20107;-73
2022/05/03 10:14:34;;;;;;;12.65;5.43;;;;;;;16.61;44.56;101859.63;5088898;28;20159;-73
2022/05/03 10:22:36;;;;;;;8.25;4.47;;;;;;;16.48;45.07;101852.44;5072627;28;20043;-73
2022/05/03 10:25:04;;;;;;;9.90;4.60;;;;;;;16.40;45.73;101847.25;5091775;28;20415;-74
2022/05/03 10:27:32;;;;;;;10.02;4.05;;;;;;;16.28;45.90;101848.97;5090467;28;20542;-74
2022/05/03 10:30:20;;;;;;;7.47;4.18;;;;;;;16.15;46.43;101849.81;5091723;28;20032;-73
2022/05/03 10:33:05;;;;;;;7.93;4.15;;;;;;;16.43;46.98;101853.06;5091434;28;20450;-73
2022/05/03 10:35:34;;;;;;;9.43;4.35;;;;;;;16.70;46.24;101842.22;5087881;28;20028;-73
2022/05/03 10:38:00;;;;;;;9.63;4.40;;;;;;;16.77;45.62;101842.19;5090311;28;20989;-73
2022/05/03 10:40:34;;;;;;;11.13;5.10;;;;;;;16.77;45.09;101837.66;5091444;28;20032;-73
2022/05/03 10:43:27;;;;;;;8.88;4.47;;;;;;;16.75;45.21;101823.53;5088497;28;20064;-73
2022/05/03 10:45:57;;;;;;;8.77;4.53;;;;;;;16.75;45.05;101830.81;5092263;28;20071;-73
2022/05/03 10:48:28;;;;;;;11.15;5.70;;;;;;;17.08;46.00;101825.28;5091783;28;20036;-74
2022/05/03 10:51:00;;;;;;;11.43;5.95;;;;;;;17.25;44.94;101825.59;5091224;28;20069;-73
2022/05/03 10:53:26;;;;;;;;;;;;;;;17.14;45.62;101837.91;5081950;28;20035;-74
2022/05/03 10:56:07;;;;;;;11.85;4.28;;;;;;;17.02;45.74;101835.03;5091159;28;20338;-74
2022/05/03 10:58:38;;;;;;;11.00;5.65;;;;;;;17.23;44.62;101824.97;5087697;28;20040;-73
2022/05/03 11:01:09;;;;;;;9.35;4.10;;;;;;;17.68;44.97;101822.16;5071869;28;20031;-74
2022/05/03 11:03:37;;;;;;;8.07;4.70;;;;;;;17.91;44.62;101800.00;5071963;28;20884;-73
2022/05/03 11:06:18;;;;;;;9.85;4.55;;;;;;;17.83;43.65;101817.28;5091112;28;20552;-74
2022/05/03 11:11:47;;;;;;;8.38;4.57;;;;;;;17.12;44.13;101809.50;5090647;28;20036;-73
2022/05/03 11:14:21;;;;;;;7.35;4.05;;;;;;;17.17;46.54;101815.06;5071520;28;20024;-74
2022/05/03 11:16:50;;;;;;;5.35;3.22;;;;;;;17.47;45.02;101799.09;5090874;28;20061;-73
2022/05/03 11:19:20;;;;;;;6.10;3.30;;;;;;;17.74;44.05;101815.91;5090721;28;20076;-74
2022/05/03 11:21:47;;;;;;;6.32;4.20;;;;;;;17.48;43.50;101811.53;5090632;28;20717;-73
2022/05/03 11:24:23;;;;;;;7.18;3.45;;;;;;;17.25;44.70;101809.44;5076873;28;20071;-73
2022/05/03 11:26:50;;;;;;;4.97;3.00;;;;;;;17.35;43.85;101807.06;5090645;28;20451;-74
2022/05/03 11:29:16;;;;;;;4.85;3.03;;;;;;;17.56;44.49;101797.78;5090227;28;20019;-73
2022/05/03 11:31:49;;;;;;;8.90;3.80;;;;;;;17.92;43.85;101797.09;5090414;28;20020;-74
2022/05/03 11:34:17;;;;;;;7.82;3.97;;;;;;;17.79;43.13;101788.25;5090581;28;20024;-73
2022/05/03 11:36:44;;;;;;;9.98;5.53;;;;;;;17.61;45.86;101794.44;5089431;28;20077;-72
2022/05/03 11:39:10;;;;;;;10.07;5.78;;;;;;;17.49;46.28;101797.81;5089080;28;20035;-73
2022/05/03 11:41:36;;;;;;;12.82;5.22;;;;;;;17.43;46.36;101792.50;5081812;28;20058;-73
2022/05/03 11:44:02;;;;;;;11.93;7.30;;;;;;;17.39;47.29;101793.97;5083086;28;20037;-73
2022/05/03 11:46:27;;;;;;;13.05;7.15;;;;;;;17.34;47.36;101786.53;5070724;28;20024;-72
2022/05/03 11:48:59;;;;;;;13.82;6.97;;;;;;;17.29;48.08;101792.59;5070840;28;20039;-73
2022/05/03 11:57:07;;;;;;;12.68;6.53;;;;;;;17.70;46.62;101777.72;5089995;28;20062;-73
2022/05/03 11:59:33;;;;;;;11.18;6.22;;;;;;;17.87;44.13;101779.91;5090118;28;20035;-73
2022/05/03 12:02:32;;;;;;;12.25;6.80;;;;;;;17.93;45.60;101777.13;5089957;28;20040;-73
2022/05/03 12:05:07;;;;;;;17.45;7.65;;;;;;;18.27;46.06;101772.22;5045701;28;20456;-72
2022/05/03 12:07:41;;;;;;;9.23;5.13;;;;;;;18.40;44.56;101765.84;5089815;28;20031;-73
2022/05/03 12:10:16;;;;;;;8.32;4.75;;;;;;;18.48;43.79;101762.81;5089922;28;20076;-73
2022/05/03 12:12:45;;;;;;;9.95;5.45;;;;;;;18.55;42.99;101751.94;5089993;28;20399;-74
2022/05/03 12:15:22;;;;;;;11.75;5.85;;;;;;;18.56;44.20;101753.56;5086965;28;20017;-72
2022/05/03 12:17:56;;;;;;;12.50;5.43;;;;;;;18.40;44.95;101750.44;5070284;28;20027;-73
2022/05/03 12:20:22;;;;;;;8.85;5.10;;;;;;;18.50;45.40;101755.31;5089399;28;20156;-72
2022/05/03 12:23:08;;;;;;;11.05;4.75;;;;;;;18.83;44.77;101754.06;5089577;28;20510;-72
2022/05/03 12:25:34;;;;;;;8.60;5.60;;;;;;;19.21;42.96;101753.72;5089613;28;20043;-73
2022/05/03 12:28:04;;;;;;;11.35;4.95;;;;;;;19.53;43.22;101744.47;5089430;28;20028;-72